sensor_id;sensor_type;location;lat;lon;timestamp;pressure;altitude;pressure_sealevel;temperature;humidity
77216;BME280;66210;53.282;9.864;2023-04-25T00:00:52;99949.31;;;7.13;87.42
77216;BME280;66210;53.282;9.864;2023-04-25T00:03:20;99949.31;;;7.13;87.26
77216;BME280;66210;53.282;9.864;2023-04-25T00:05:48;99950.19;;;7.13;87.30
77216;BME280;66210;53.282;9.864;2023-04-25T00:08:15;99955.03;;;7.08;87.66
77216;BME280;66210;53.282;9.864;2023-04-25T00:10:42;99960.09;;;7.08;87.73
77216;BME280;66210;53.282;9.864;2023-04-25T00:13:08;99956.69;;;7.08;87.47
77216;BME280;66210;53.282;9.864;2023-04-25T00:15:37;99960.72;;;7.04;87.79
77216;BME280;66210;53.282;9.864;2023-04-25T00:18:05;99962.31;;;7.02;88.09
77216;BME280;66210;53.282;9.864;2023-04-25T00:20:32;99959.72;;;7.01;87.55
77216;BME280;66210;53.282;9.864;2023-04-25T00:22:59;99959.72;;;7.01;88.01
77216;BME280;66210;53.282;9.864;2023-04-25T00:25:26;99974.00;;;7.00;88.08
77216;BME280;66210;53.282;9.864;2023-04-25T00:27:53;99976.53;;;7.00;88.08
77216;BME280;66210;53.282;9.864;2023-04-25T00:30:19;99969.50;;;6.95;87.93
77216;BME280;66210;53.282;9.864;2023-04-25T00:32:46;99979.63;;;6.95;87.98
77216;BME280;66210;53.282;9.864;2023-04-25T00:35:13;99975.06;;;6.87;87.63
77216;BME280;66210;53.282;9.864;2023-04-25T00:37:40;99973.84;;;6.79;87.38
77216;BME280;66210;53.282;9.864;2023-04-25T00:40:07;99981.47;;;6.81;87.51
77216;BME280;66210;53.282;9.864;2023-04-25T00:42:35;99983.88;;;6.78;87.42
77216;BME280;66210;53.282;9.864;2023-04-25T00:45:05;99985.53;;;6.77;87.27
77216;BME280;66210;53.282;9.864;2023-04-25T00:47:32;99999.78;;;6.77;87.39
77216;BME280;66210;53.282;9.864;2023-04-25T00:49:59;99998.69;;;6.72;87.86
77216;BME280;66210;53.282;9.864;2023-04-25T00:52:26;100002.91;;;6.71;87.61
77216;BME280;66210;53.282;9.864;2023-04-25T00:54:53;99984.91;;;6.65;87.53
77216;BME280;66210;53.282;9.864;2023-04-25T00:57:19;99998.56;;;6.69;87.50
77216;BME280;66210;53.282;9.864;2023-04-25T00:59:46;100002.72;;;6.68;87.52
77216;BME280;66210;53.282;9.864;2023-04-25T01:02:14;99994.00;;;6.61;87.67
77216;BME280;66210;53.282;9.864;2023-04-25T01:04:40;99990.75;;;6.64;87.11
77216;BME280;66210;53.282;9.864;2023-04-25T01:07:07;99993.06;;;6.59;87.39
77216;BME280;66210;53.282;9.864;2023-04-25T01:09:35;100000.53;;;6.58;86.97
77216;BME280;66210;53.282;9.864;2023-04-25T01:12:02;100005.38;;;6.53;86.66
77216;BME280;66210;53.282;9.864;2023-04-25T01:14:29;100006.56;;;6.43;86.91
77216;BME280;66210;53.282;9.864;2023-04-25T01:16:56;100009.97;;;6.44;86.25
77216;BME280;66210;53.282;9.864;2023-04-25T01:19:23;99998.75;;;6.39;86.98
77216;BME280;66210;53.282;9.864;2023-04-25T01:21:51;100005.31;;;6.35;86.86
77216;BME280;66210;53.282;9.864;2023-04-25T01:24:18;100002.59;;;6.32;86.53
77216;BME280;66210;53.282;9.864;2023-04-25T01:26:45;100011.06;;;6.33;86.61
77216;BME280;66210;53.282;9.864;2023-04-25T01:29:17;100000.03;;;6.31;86.73
77216;BME280;66210;53.282;9.864;2023-04-25T01:31:44;100000.66;;;6.27;86.86
77216;BME280;66210;53.282;9.864;2023-04-25T01:34:12;100008.31;;;6.28;86.49
77216;BME280;66210;53.282;9.864;2023-04-25T01:36:39;100008.75;;;6.21;85.69
77216;BME280;66210;53.282;9.864;2023-04-25T01:39:06;100013.56;;;6.16;85.61
77216;BME280;66210;53.282;9.864;2023-04-25T01:41:33;100019.31;;;6.14;86.03
77216;BME280;66210;53.282;9.864;2023-04-25T01:44:01;100016.66;;;6.11;85.57
77216;BME280;66210;53.282;9.864;2023-04-25T01:46:29;100020.66;;;6.07;85.34
77216;BME280;66210;53.282;9.864;2023-04-25T01:48:57;100022.22;;;6.05;85.99
77216;BME280;66210;53.282;9.864;2023-04-25T01:51:23;100019.72;;;6.05;85.79
77216;BME280;66210;53.282;9.864;2023-04-25T01:53:50;100033.13;;;6.04;85.16
77216;BME280;66210;53.282;9.864;2023-04-25T01:56:18;100033.03;;;6.02;85.61
77216;BME280;66210;53.282;9.864;2023-04-25T01:58:45;100038.00;;;6.01;85.46
77216;BME280;66210;53.282;9.864;2023-04-25T02:01:12;100045.59;;;6.01;85.43
77216;BME280;66210;53.282;9.864;2023-04-25T02:03:39;100038.00;;;6.01;85.37
77216;BME280;66210;53.282;9.864;2023-04-25T02:06:06;100042.97;;;5.99;85.67
77216;BME280;66210;53.282;9.864;2023-04-25T02:08:32;100042.09;;;5.99;85.28
77216;BME280;66210;53.282;9.864;2023-04-25T02:11:00;100050.34;;;5.96;85.33
77216;BME280;66210;53.282;9.864;2023-04-25T02:13:26;100056.19;;;5.95;85.42
77216;BME280;66210;53.282;9.864;2023-04-25T02:15:53;100054.47;;;5.94;85.64
77216;BME280;66210;53.282;9.864;2023-04-25T02:22:32;100053.00;;;5.83;86.04
77216;BME280;66210;53.282;9.864;2023-04-25T02:25:00;100062.91;;;5.80;85.35
77216;BME280;66210;53.282;9.864;2023-04-25T02:27:27;100060.13;;;5.75;85.77
77216;BME280;66210;53.282;9.864;2023-04-25T02:29:54;100063.44;;;5.74;85.69
77216;BME280;66210;53.282;9.864;2023-04-25T02:32:21;100057.28;;;5.69;85.48
77216;BME280;66210;53.282;9.864;2023-04-25T02:34:47;100060.50;;;5.67;85.68
77216;BME280;66210;53.282;9.864;2023-04-25T02:37:14;100044.41;;;5.65;85.53
77216;BME280;66210;53.282;9.864;2023-04-25T02:39:41;100056.31;;;5.67;85.35
77216;BME280;66210;53.282;9.864;2023-04-25T02:42:08;100057.22;;;5.68;85.21
77216;BME280;66210;53.282;9.864;2023-04-25T02:44:34;100063.09;;;5.68;85.89
77216;BME280;66210;53.282;9.864;2023-04-25T02:47:01;100061.53;;;5.70;85.26
77216;BME280;66210;53.282;9.864;2023-04-25T02:49:28;100062.41;;;5.71;85.37
77216;BME280;66210;53.282;9.864;2023-04-25T02:51:55;100065.72;;;5.70;85.07
77216;BME280;66210;53.282;9.864;2023-04-25T02:54:22;100069.00;;;5.69;85.71
77216;BME280;66210;53.282;9.864;2023-04-25T02:56:48;100073.09;;;5.67;85.08
77216;BME280;66210;53.282;9.864;2023-04-25T02:59:15;100068.91;;;5.67;85.30
77216;BME280;66210;53.282;9.864;2023-04-25T03:01:42;100079.69;;;5.65;85.12
77216;BME280;66210;53.282;9.864;2023-04-25T03:04:09;100085.53;;;5.63;85.14
77216;BME280;66210;53.282;9.864;2023-04-25T03:06:36;100071.81;;;5.58;84.88
77216;BME280;66210;53.282;9.864;2023-04-25T03:09:03;100081.19;;;5.61;85.17
77216;BME280;66210;53.282;9.864;2023-04-25T03:11:30;100079.44;;;5.60;84.96
77216;BME280;66210;53.282;9.864;2023-04-25T03:13:57;100075.13;;;5.57;84.65
77216;BME280;66210;53.282;9.864;2023-04-25T03:16:23;100077.28;;;5.51;84.06
77216;BME280;66210;53.282;9.864;2023-04-25T03:18:50;100077.94;;;5.47;83.85
77216;BME280;66210;53.282;9.864;2023-04-25T03:21:17;100081.81;;;5.42;84.04
77216;BME280;66210;53.282;9.864;2023-04-25T03:23:44;100093.41;;;5.38;83.46
77216;BME280;66210;53.282;9.864;2023-04-25T03:26:11;100084.69;;;5.33;84.25
77216;BME280;66210;53.282;9.864;2023-04-25T03:28:38;100092.78;;;5.28;84.00
77216;BME280;66210;53.282;9.864;2023-04-25T03:31:06;100097.38;;;5.20;84.04
77216;BME280;66210;53.282;9.864;2023-04-25T03:33:33;100096.25;;;5.15;84.30
77216;BME280;66210;53.282;9.864;2023-04-25T03:35:59;100103.44;;;5.09;84.67
77216;BME280;66210;53.282;9.864;2023-04-25T03:38:26;100102.91;;;4.99;84.57
77216;BME280;66210;53.282;9.864;2023-04-25T03:40:53;100101.69;;;4.93;84.80
77216;BME280;66210;53.282;9.864;2023-04-25T03:43:20;100108.28;;;4.91;84.71
77216;BME280;66210;53.282;9.864;2023-04-25T03:45:47;100100.28;;;4.83;85.04
77216;BME280;66210;53.282;9.864;2023-04-25T03:48:14;100101.00;;;4.81;84.63
77216;BME280;66210;53.282;9.864;2023-04-25T03:50:41;100102.44;;;4.77;85.03
77216;BME280;66210;53.282;9.864;2023-04-25T03:53:08;100113.03;;;4.71;85.25
77216;BME280;66210;53.282;9.864;2023-04-25T03:55:34;100106.84;;;4.66;85.06
77216;BME280;66210;53.282;9.864;2023-04-25T03:58:01;100102.91;;;4.56;85.12
77216;BME280;66210;53.282;9.864;2023-04-25T04:00:28;100108.75;;;4.55;85.28
77216;BME280;66210;53.282;9.864;2023-04-25T04:02:55;100112.72;;;4.52;85.17
77216;BME280;66210;53.282;9.864;2023-04-25T04:05:22;100114.16;;;4.48;85.50
77216;BME280;66210;53.282;9.864;2023-04-25T04:07:50;100111.38;;;4.44;85.20
77216;BME280;66210;53.282;9.864;2023-04-25T04:10:16;100113.44;;;4.36;85.57
77216;BME280;66210;53.282;9.864;2023-04-25T04:12:43;100117.69;;;4.37;85.59
77216;BME280;66210;53.282;9.864;2023-04-25T04:15:10;100127.66;;;4.35;85.61
77216;BME280;66210;53.282;9.864;2023-04-25T04:17:37;100128.34;;;4.33;85.52
77216;BME280;66210;53.282;9.864;2023-04-25T04:20:05;100141.97;;;4.36;86.01
77216;BME280;66210;53.282;9.864;2023-04-25T04:22:32;100138.00;;;4.40;85.47
77216;BME280;66210;53.282;9.864;2023-04-25T04:24:59;100138.97;;;4.42;85.67
77216;BME280;66210;53.282;9.864;2023-04-25T04:27:26;100145.94;;;4.46;85.24
77216;BME280;66210;53.282;9.864;2023-04-25T04:29:52;100149.47;;;4.50;85.19
77216;BME280;66210;53.282;9.864;2023-04-25T04:32:19;100148.91;;;4.54;85.24
77216;BME280;66210;53.282;9.864;2023-04-25T04:34:46;100147.34;;;4.56;84.85
77216;BME280;66210;53.282;9.864;2023-04-25T04:37:14;100135.19;;;4.49;85.17
77216;BME280;66210;53.282;9.864;2023-04-25T04:39:41;100147.44;;;4.57;84.71
77216;BME280;66210;53.282;9.864;2023-04-25T04:42:08;100148.19;;;4.56;84.91
77216;BME280;66210;53.282;9.864;2023-04-25T04:44:35;100152.38;;;4.56;84.52
77216;BME280;66210;53.282;9.864;2023-04-25T04:47:02;100163.78;;;4.64;84.56
77216;BME280;66210;53.282;9.864;2023-04-25T04:49:33;100166.28;;;4.64;84.50
77216;BME280;66210;53.282;9.864;2023-04-25T04:52:00;100168.13;;;4.67;84.07
77216;BME280;66210;53.282;9.864;2023-04-25T04:54:27;100160.38;;;4.64;84.25
77216;BME280;66210;53.282;9.864;2023-04-25T04:56:54;100160.38;;;4.64;83.91
77216;BME280;66210;53.282;9.864;2023-04-25T04:59:21;100159.50;;;4.63;84.04
77216;BME280;66210;53.282;9.864;2023-04-25T05:01:47;100153.63;;;4.63;84.17
77216;BME280;66210;53.282;9.864;2023-04-25T05:04:14;100155.25;;;4.62;84.17
77216;BME280;66210;53.282;9.864;2023-04-25T05:06:41;100168.44;;;4.58;84.06
77216;BME280;66210;53.282;9.864;2023-04-25T05:09:08;100182.94;;;4.62;84.45
77216;BME280;66210;53.282;9.864;2023-04-25T05:11:35;100184.84;;;4.66;84.47
77216;BME280;66210;53.282;9.864;2023-04-25T05:14:01;100174.00;;;4.67;84.42
77216;BME280;66210;53.282;9.864;2023-04-25T05:16:28;100192.34;;;4.79;83.92
77216;BME280;66210;53.282;9.864;2023-04-25T05:18:55;100188.50;;;4.85;83.73
77216;BME280;66210;53.282;9.864;2023-04-25T05:21:22;100197.97;;;4.89;83.79
77216;BME280;66210;53.282;9.864;2023-04-25T05:23:49;100200.66;;;4.92;83.46
77216;BME280;66210;53.282;9.864;2023-04-25T05:26:16;100200.81;;;4.95;83.34
77216;BME280;66210;53.282;9.864;2023-04-25T05:28:43;100204.13;;;4.94;82.74
77216;BME280;66210;53.282;9.864;2023-04-25T05:31:09;100207.50;;;4.94;82.25
77216;BME280;66210;53.282;9.864;2023-04-25T05:33:36;100212.56;;;4.94;81.58
77216;BME280;66210;53.282;9.864;2023-04-25T05:36:03;100215.59;;;4.89;81.60
77216;BME280;66210;53.282;9.864;2023-04-25T05:38:30;100203.59;;;4.85;82.17
77216;BME280;66210;53.282;9.864;2023-04-25T05:41:00;100218.44;;;4.95;81.67
77216;BME280;66210;53.282;9.864;2023-04-25T05:43:27;100211.00;;;4.96;82.06
77216;BME280;66210;53.282;9.864;2023-04-25T05:46:13;100213.63;;;4.98;81.55
77216;BME280;66210;53.282;9.864;2023-04-25T05:48:40;100219.50;;;4.98;81.60
77216;BME280;66210;53.282;9.864;2023-04-25T05:51:06;100223.69;;;4.98;81.33
77216;BME280;66210;53.282;9.864;2023-04-25T05:53:33;100213.63;;;4.98;81.17
77216;BME280;66210;53.282;9.864;2023-04-25T05:56:00;100219.78;;;5.03;81.33
77216;BME280;66210;53.282;9.864;2023-04-25T05:58:27;100221.44;;;5.03;81.02
77216;BME280;66210;53.282;9.864;2023-04-25T06:00:55;100226.53;;;5.04;81.48
77216;BME280;66210;53.282;9.864;2023-04-25T06:03:22;100231.59;;;5.04;80.92
77216;BME280;66210;53.282;9.864;2023-04-25T06:05:49;100226.75;;;5.07;81.58
77216;BME280;66210;53.282;9.864;2023-04-25T06:08:16;100233.50;;;5.08;81.12
77216;BME280;66210;53.282;9.864;2023-04-25T06:10:43;100235.34;;;5.11;80.98
77216;BME280;66210;53.282;9.864;2023-04-25T06:13:10;100226.22;;;5.13;81.17
77216;BME280;66210;53.282;9.864;2023-04-25T06:15:37;100224.50;;;5.12;80.30
77216;BME280;66210;53.282;9.864;2023-04-25T06:18:03;100233.19;;;5.17;80.03
77216;BME280;66210;53.282;9.864;2023-04-25T06:20:30;100242.66;;;5.21;80.80
77216;BME280;66210;53.282;9.864;2023-04-25T06:22:57;100240.75;;;5.17;79.30
77216;BME280;66210;53.282;9.864;2023-04-25T06:25:24;100230.94;;;5.21;79.78
77216;BME280;66210;53.282;9.864;2023-04-25T06:27:51;100237.09;;;5.27;79.87
77216;BME280;66210;53.282;9.864;2023-04-25T06:30:17;100245.03;;;5.33;79.51
77216;BME280;66210;53.282;9.864;2023-04-25T06:32:49;100237.69;;;5.36;79.66
77216;BME280;66210;53.282;9.864;2023-04-25T06:35:15;100243.84;;;5.41;80.59
77216;BME280;66210;53.282;9.864;2023-04-25T06:37:42;100246.72;;;5.47;79.62
77216;BME280;66210;53.282;9.864;2023-04-25T06:40:09;100244.28;;;5.49;79.38
77216;BME280;66210;53.282;9.864;2023-04-25T06:42:36;100250.28;;;5.51;78.37
77216;BME280;66210;53.282;9.864;2023-04-25T06:45:03;100236.66;;;5.47;78.46
77216;BME280;66210;53.282;9.864;2023-04-25T06:47:30;100253.25;;;5.58;78.39
77216;BME280;66210;53.282;9.864;2023-04-25T06:49:56;100252.63;;;5.62;78.61
77216;BME280;66210;53.282;9.864;2023-04-25T06:52:23;100256.47;;;5.71;78.31
77216;BME280;66210;53.282;9.864;2023-04-25T06:54:50;100256.75;;;5.75;77.67
77216;BME280;66210;53.282;9.864;2023-04-25T06:57:16;100266.38;;;5.82;77.75
77216;BME280;66210;53.282;9.864;2023-04-25T06:59:43;100255.91;;;5.90;77.12
77216;BME280;66210;53.282;9.864;2023-04-25T07:02:10;100258.00;;;5.97;75.49
77216;BME280;66210;53.282;9.864;2023-04-25T07:04:37;100255.91;;;6.04;76.10
77216;BME280;66210;53.282;9.864;2023-04-25T07:07:04;100254.75;;;6.14;76.70
77216;BME280;66210;53.282;9.864;2023-04-25T07:09:31;100268.88;;;6.26;75.47
77216;BME280;66210;53.282;9.864;2023-04-25T07:12:00;100276.44;;;6.26;74.95
77216;BME280;66210;53.282;9.864;2023-04-25T07:14:28;100277.44;;;6.29;75.54
77216;BME280;66210;53.282;9.864;2023-04-25T07:16:54;100283.56;;;6.33;75.57
77216;BME280;66210;53.282;9.864;2023-04-25T07:19:23;100279.97;;;6.29;74.80
77216;BME280;66210;53.282;9.864;2023-04-25T07:21:53;100288.75;;;6.21;74.75
77216;BME280;66210;53.282;9.864;2023-04-25T07:24:20;100296.31;;;6.21;74.47
77216;BME280;66210;53.282;9.864;2023-04-25T07:26:47;100299.28;;;6.14;74.72
77216;BME280;66210;53.282;9.864;2023-04-25T07:29:13;100293.91;;;6.08;76.40
77216;BME280;66210;53.282;9.864;2023-04-25T07:31:40;100298.97;;;6.08;76.46
77216;BME280;66210;53.282;9.864;2023-04-25T07:34:07;100296.16;;;6.03;78.27
77216;BME280;66210;53.282;9.864;2023-04-25T07:36:34;100298.25;;;5.95;78.77
77216;BME280;66210;53.282;9.864;2023-04-25T07:39:01;100292.72;;;6.01;78.47
77216;BME280;66210;53.282;9.864;2023-04-25T07:41:27;100299.66;;;6.20;78.59
77216;BME280;66210;53.282;9.864;2023-04-25T07:43:57;100302.84;;;6.32;78.22
77216;BME280;66210;53.282;9.864;2023-04-25T07:46:24;100306.66;;;6.40;78.31
77216;BME280;66210;53.282;9.864;2023-04-25T07:48:51;100303.28;;;6.40;77.64
77216;BME280;66210;53.282;9.864;2023-04-25T07:51:18;100308.50;;;6.43;77.57
77216;BME280;66210;53.282;9.864;2023-04-25T07:53:46;100314.44;;;6.43;75.81
77216;BME280;66210;53.282;9.864;2023-04-25T07:56:16;100310.06;;;6.41;76.34
77216;BME280;66210;53.282;9.864;2023-04-25T07:58:42;100308.22;;;6.38;75.88
77216;BME280;66210;53.282;9.864;2023-04-25T08:01:09;100309.28;;;6.42;76.12
77216;BME280;66210;53.282;9.864;2023-04-25T08:03:36;100309.78;;;6.51;75.22
77216;BME280;66210;53.282;9.864;2023-04-25T08:06:03;100316.47;;;6.65;75.37
77216;BME280;66210;53.282;9.864;2023-04-25T08:08:33;100321.00;;;6.71;72.24
77216;BME280;66210;53.282;9.864;2023-04-25T08:11:00;100315.84;;;6.70;69.51
77216;BME280;66210;53.282;9.864;2023-04-25T08:13:27;100327.25;;;6.78;69.84
77216;BME280;66210;53.282;9.864;2023-04-25T08:15:53;100318.13;;;6.96;70.57
77216;BME280;66210;53.282;9.864;2023-04-25T08:18:21;100325.81;;;7.14;70.84
77216;BME280;66210;53.282;9.864;2023-04-25T08:20:48;100328.56;;;7.19;69.48
77216;BME280;66210;53.282;9.864;2023-04-25T08:23:14;100324.72;;;7.25;70.28
77216;BME280;66210;53.282;9.864;2023-04-25T08:25:41;100326.47;;;7.59;70.36
77216;BME280;66210;53.282;9.864;2023-04-25T08:28:08;100326.56;;;7.95;68.03
77216;BME280;66210;53.282;9.864;2023-04-25T08:30:36;100322.09;;;8.24;67.34
77216;BME280;66210;53.282;9.864;2023-04-25T08:33:02;100333.84;;;8.58;66.27
77216;BME280;66210;53.282;9.864;2023-04-25T08:35:29;100332.38;;;8.99;67.59
77216;BME280;66210;53.282;9.864;2023-04-25T08:37:56;100328.72;;;9.11;65.52
77216;BME280;66210;53.282;9.864;2023-04-25T08:40:27;100335.84;;;9.01;66.31
77216;BME280;66210;53.282;9.864;2023-04-25T08:42:57;100345.28;;;8.67;67.04
77216;BME280;66210;53.282;9.864;2023-04-25T08:45:27;100366.59;;;8.20;66.78
77216;BME280;66210;53.282;9.864;2023-04-25T08:47:56;100395.19;;;7.52;69.68
77216;BME280;66210;53.282;9.864;2023-04-25T08:50:23;100398.84;;;6.95;71.22
77216;BME280;66210;53.282;9.864;2023-04-25T08:52:53;100388.91;;;6.37;72.68
77216;BME280;66210;53.282;9.864;2023-04-25T08:55:20;100382.88;;;5.92;74.96
77216;BME280;66210;53.282;9.864;2023-04-25T08:57:48;100389.91;;;5.82;76.25
77216;BME280;66210;53.282;9.864;2023-04-25T09:00:15;100394.88;;;5.81;76.79
77216;BME280;66210;53.282;9.864;2023-04-25T09:02:42;100403.59;;;5.86;78.17
77216;BME280;66210;53.282;9.864;2023-04-25T09:05:13;100396.69;;;5.97;77.67
77216;BME280;66210;53.282;9.864;2023-04-25T09:07:39;100397.59;;;6.12;76.90
77216;BME280;66210;53.282;9.864;2023-04-25T09:10:06;100394.81;;;6.22;78.91
77216;BME280;66210;53.282;9.864;2023-04-25T09:12:34;100407.97;;;6.47;79.71
77216;BME280;66210;53.282;9.864;2023-04-25T09:15:09;100399.34;;;6.73;79.69
77216;BME280;66210;53.282;9.864;2023-04-25T09:17:36;100392.28;;;6.82;77.97
77216;BME280;66210;53.282;9.864;2023-04-25T09:22:35;100400.41;;;7.07;78.11
77216;BME280;66210;53.282;9.864;2023-04-25T09:25:03;100402.91;;;7.22;78.18
77216;BME280;66210;53.282;9.864;2023-04-25T09:50:22;100455.03;;;8.17;69.18
77216;BME280;66210;53.282;9.864;2023-04-25T09:53:04;100454.63;;;7.29;70.96
77216;BME280;66210;53.282;9.864;2023-04-25T09:55:34;100463.06;;;6.54;73.68
77216;BME280;66210;53.282;9.864;2023-04-25T09:58:04;100453.53;;;6.20;75.30
77216;BME280;66210;53.282;9.864;2023-04-25T10:00:33;100458.78;;;5.95;76.72
77216;BME280;66210;53.282;9.864;2023-04-25T10:03:01;100458.78;;;5.81;77.27
77216;BME280;66210;53.282;9.864;2023-04-25T10:05:32;100461.31;;;5.81;78.79
77216;BME280;66210;53.282;9.864;2023-04-25T10:08:02;100468.56;;;5.90;78.68
77216;BME280;66210;53.282;9.864;2023-04-25T10:10:31;100471.06;;;6.03;80.59
77216;BME280;66210;53.282;9.864;2023-04-25T10:13:04;100473.06;;;6.09;78.90
77216;BME280;66210;53.282;9.864;2023-04-25T10:15:35;100471.78;;;6.16;79.47
77216;BME280;66210;53.282;9.864;2023-04-25T10:18:28;100468.94;;;6.24;79.06
77216;BME280;66210;53.282;9.864;2023-04-25T10:20:57;100470.00;;;6.43;79.30
77216;BME280;66210;53.282;9.864;2023-04-25T10:23:25;100468.25;;;6.57;79.68
77216;BME280;66210;53.282;9.864;2023-04-25T10:25:52;100470.00;;;6.87;81.21
77216;BME280;66210;53.282;9.864;2023-04-25T10:28:20;100466.66;;;7.33;78.68
77216;BME280;66210;53.282;9.864;2023-04-25T10:31:00;100455.75;;;7.82;76.81
77216;BME280;66210;53.282;9.864;2023-04-25T10:33:34;100455.41;;;8.25;75.96
77216;BME280;66210;53.282;9.864;2023-04-25T10:36:33;100466.44;;;8.76;71.83
77216;BME280;66210;53.282;9.864;2023-04-25T10:39:04;100465.91;;;9.00;69.73
77216;BME280;66210;53.282;9.864;2023-04-25T10:41:46;100457.53;;;9.38;71.47
77216;BME280;66210;53.282;9.864;2023-04-25T10:44:14;100450.19;;;9.82;69.54
77216;BME280;66210;53.282;9.864;2023-04-25T10:46:44;100460.69;;;10.28;67.06
77216;BME280;66210;53.282;9.864;2023-04-25T10:49:28;100444.13;;;10.36;63.85
77216;BME280;66210;53.282;9.864;2023-04-25T10:52:18;100443.88;;;10.51;63.52
77216;BME280;66210;53.282;9.864;2023-04-25T10:54:47;100430.91;;;10.86;64.81
77216;BME280;66210;53.282;9.864;2023-04-25T10:57:39;100447.00;;;10.86;61.73
77216;BME280;66210;53.282;9.864;2023-04-25T11:00:13;100449.69;;;10.47;59.56
77216;BME280;66210;53.282;9.864;2023-04-25T11:02:52;100459.59;;;9.84;60.30
77216;BME280;66210;53.282;9.864;2023-04-25T11:05:32;100494.13;;;9.25;61.08
77216;BME280;66210;53.282;9.864;2023-04-25T11:08:11;100490.00;;;8.41;65.19
77216;BME280;66210;53.282;9.864;2023-04-25T11:10:40;100501.97;;;7.79;66.14
77216;BME280;66210;53.282;9.864;2023-04-25T11:13:07;100512.66;;;7.42;68.27
77216;BME280;66210;53.282;9.864;2023-04-25T11:15:34;100500.13;;;6.99;68.81
77216;BME280;66210;53.282;9.864;2023-04-25T11:18:01;100497.97;;;6.76;70.24
77216;BME280;66210;53.282;9.864;2023-04-25T11:20:28;100506.94;;;6.71;71.23
77216;BME280;66210;53.282;9.864;2023-04-25T11:22:57;100511.19;;;6.72;71.42
77216;BME280;66210;53.282;9.864;2023-04-25T11:25:25;100502.06;;;6.74;70.96
77216;BME280;66210;53.282;9.864;2023-04-25T11:27:56;100499.81;;;6.78;70.07
77216;BME280;66210;53.282;9.864;2023-04-25T11:30:25;100497.69;;;6.86;71.06
77216;BME280;66210;53.282;9.864;2023-04-25T11:32:52;100503.09;;;6.92;70.61
77216;BME280;66210;53.282;9.864;2023-04-25T11:35:19;100505.38;;;7.02;70.03
77216;BME280;66210;53.282;9.864;2023-04-25T11:37:47;100510.16;;;7.13;70.73
77216;BME280;66210;53.282;9.864;2023-04-25T11:40:14;100491.41;;;7.24;70.58
77216;BME280;66210;53.282;9.864;2023-04-25T11:42:46;100501.25;;;7.65;69.87
77216;BME280;66210;53.282;9.864;2023-04-25T11:45:13;100500.59;;;8.01;66.70
77216;BME280;66210;53.282;9.864;2023-04-25T11:47:40;100492.44;;;8.39;67.15
77216;BME280;66210;53.282;9.864;2023-04-25T11:50:08;100498.09;;;8.84;63.79
77216;BME280;66210;53.282;9.864;2023-04-25T11:52:42;100503.28;;;9.22;63.10
77216;BME280;66210;53.282;9.864;2023-04-25T11:55:14;100497.72;;;9.66;62.11
77216;BME280;66210;53.282;9.864;2023-04-25T11:57:42;100490.69;;;10.17;56.90
77216;BME280;66210;53.282;9.864;2023-04-25T12:00:12;100491.00;;;10.64;53.56
77216;BME280;66210;53.282;9.864;2023-04-25T12:02:45;100507.47;;;10.53;54.88
77216;BME280;66210;53.282;9.864;2023-04-25T12:05:14;100513.34;;;10.13;55.82
77216;BME280;66210;53.282;9.864;2023-04-25T12:07:47;100510.19;;;9.62;56.86
77216;BME280;66210;53.282;9.864;2023-04-25T12:10:16;100520.00;;;9.36;57.50
77216;BME280;66210;53.282;9.864;2023-04-25T12:12:45;100536.56;;;9.11;58.24
77216;BME280;66210;53.282;9.864;2023-04-25T12:49:33;100563.66;;;9.48;53.07
77216;BME280;66210;53.282;9.864;2023-04-25T12:52:00;100571.91;;;9.08;56.20
77216;BME280;66210;53.282;9.864;2023-04-25T12:54:27;100575.63;;;8.48;59.28
77216;BME280;66210;53.282;9.864;2023-04-25T12:56:53;100584.44;;;8.23;59.94
77216;BME280;66210;53.282;9.864;2023-04-25T12:59:21;100579.03;;;8.01;60.87
77216;BME280;66210;53.282;9.864;2023-04-25T13:01:48;100580.34;;;7.94;61.62
77216;BME280;66210;53.282;9.864;2023-04-25T13:04:15;100589.34;;;7.89;61.95
77216;BME280;66210;53.282;9.864;2023-04-25T13:06:42;100583.66;;;7.93;61.43
77216;BME280;66210;53.282;9.864;2023-04-25T13:09:09;100580.13;;;8.06;61.09
77216;BME280;66210;53.282;9.864;2023-04-25T13:11:36;100590.41;;;8.09;60.51
77216;BME280;66210;53.282;9.864;2023-04-25T13:14:04;100583.41;;;8.20;60.72
77216;BME280;66210;53.282;9.864;2023-04-25T13:16:31;100589.56;;;8.25;60.12
77216;BME280;66210;53.282;9.864;2023-04-25T13:18:58;100574.78;;;8.32;58.82
77216;BME280;66210;53.282;9.864;2023-04-25T13:21:25;100582.19;;;8.44;59.98
77216;BME280;66210;53.282;9.864;2023-04-25T13:23:53;100577.53;;;8.52;59.71
77216;BME280;66210;53.282;9.864;2023-04-25T13:26:20;100568.75;;;8.45;58.96
77216;BME280;66210;53.282;9.864;2023-04-25T13:28:47;100571.28;;;8.45;59.45
77216;BME280;66210;53.282;9.864;2023-04-25T14:56:08;100615.53;;;7.75;59.80
77216;BME280;66210;53.282;9.864;2023-04-25T14:58:35;100611.53;;;7.78;59.04
77216;BME280;66210;53.282;9.864;2023-04-25T15:01:02;100612.50;;;7.80;59.40
77216;BME280;66210;53.282;9.864;2023-04-25T15:03:29;100620.84;;;7.79;59.10
77216;BME280;66210;53.282;9.864;2023-04-25T15:05:56;100625.50;;;7.72;59.00
77216;BME280;66210;53.282;9.864;2023-04-25T15:08:22;100629.75;;;7.73;60.27
77216;BME280;66210;53.282;9.864;2023-04-25T15:10:49;100629.66;;;7.71;57.56
77216;BME280;66210;53.282;9.864;2023-04-25T15:13:18;100623.22;;;7.76;58.37
77216;BME280;66210;53.282;9.864;2023-04-25T15:15:45;100628.59;;;7.82;58.70
77216;BME280;66210;53.282;9.864;2023-04-25T15:18:19;100620.50;;;7.88;58.12
77216;BME280;66210;53.282;9.864;2023-04-25T15:20:49;100632.97;;;7.85;57.01
77216;BME280;66210;53.282;9.864;2023-04-25T15:23:17;100623.28;;;7.78;54.98
77216;BME280;66210;53.282;9.864;2023-04-25T15:25:44;100635.41;;;7.83;56.15
77216;BME280;66210;53.282;9.864;2023-04-25T15:28:11;100641.78;;;7.91;55.82
77216;BME280;66210;53.282;9.864;2023-04-25T15:30:42;100654.22;;;8.03;55.34
77216;BME280;66210;53.282;9.864;2023-04-25T15:33:09;100633.38;;;8.07;55.94